createdAt,value
2023-11-23T00:00:43.418Z,10.90
2023-11-23T00:03:15.949Z,11.00
2023-11-23T00:05:47.529Z,11.00
2023-11-23T00:08:18.828Z,10.80
2023-11-23T00:10:50.765Z,10.70
2023-11-23T00:13:21.656Z,10.40
2023-11-23T00:15:52.599Z,10.50
2023-11-23T00:18:23.583Z,10.20
2023-11-23T00:20:56.462Z,10.70
2023-11-23T00:23:27.467Z,10.60
2023-11-23T00:25:58.512Z,10.30
2023-11-23T00:28:29.436Z,10.40
2023-11-23T00:31:00.416Z,10.10
2023-11-23T00:33:31.537Z,9.90
2023-11-23T00:36:04.120Z,9.70
2023-11-23T00:38:35.401Z,9.90
2023-11-23T00:41:06.801Z,9.90
2023-11-23T00:43:37.816Z,9.70
2023-11-23T00:46:08.789Z,9.80
2023-11-23T00:48:39.766Z,10.30
2023-11-23T00:51:10.786Z,10.30
2023-11-23T00:53:41.820Z,9.90
2023-11-23T00:56:12.874Z,9.90
2023-11-23T00:58:43.824Z,10.10
2023-11-23T01:01:16.645Z,9.90
2023-11-23T01:03:47.841Z,10.10
2023-11-23T01:06:18.927Z,10.00
2023-11-23T01:08:49.926Z,10.00
2023-11-23T01:11:20.886Z,10.40
2023-11-23T01:13:52.009Z,10.00
2023-11-23T01:16:23.021Z,10.20
2023-11-23T01:18:53.998Z,10.40
2023-11-23T01:21:24.920Z,10.30
2023-11-23T01:23:56.059Z,10.30
2023-11-23T01:26:27.058Z,10.40
2023-11-23T01:28:58.073Z,10.40
2023-11-23T01:31:30.407Z,10.10
2023-11-23T01:34:01.545Z,10.50
2023-11-23T01:36:32.586Z,10.60
2023-11-23T01:39:03.922Z,10.50
2023-11-23T01:41:34.898Z,10.20
2023-11-23T01:44:06.144Z,10.50
2023-11-23T01:46:37.327Z,10.60
2023-11-23T01:49:09.068Z,10.40
2023-11-23T01:51:40.068Z,10.40
2023-11-23T01:54:11.142Z,10.40
2023-11-23T01:56:43.554Z,10.10
2023-11-23T01:59:16.383Z,10.30
2023-11-23T02:01:47.477Z,10.20
2023-11-23T02:04:18.534Z,10.10
2023-11-23T02:06:49.698Z,10.30
2023-11-23T02:09:20.800Z,10.30
2023-11-23T02:11:52.372Z,10.40
2023-11-23T02:14:23.513Z,10.50
2023-11-23T02:16:54.835Z,10.50
2023-11-23T02:19:25.844Z,10.50
2023-11-23T02:21:56.776Z,10.60
2023-11-23T02:24:27.718Z,10.60
2023-11-23T02:26:58.752Z,10.70
2023-11-23T02:29:29.828Z,10.70
2023-11-23T02:32:28.505Z,10.70
2023-11-23T02:34:59.468Z,10.70
2023-11-23T02:37:30.680Z,10.70
2023-11-23T02:40:01.675Z,10.60
2023-11-23T02:42:32.616Z,10.40
2023-11-23T02:45:04.094Z,10.40
2023-11-23T02:47:35.994Z,10.30
2023-11-23T02:50:08.728Z,10.20
2023-11-23T02:52:39.958Z,10.20
2023-11-23T02:55:12.591Z,10.20
2023-11-23T02:57:43.649Z,10.20
2023-11-23T03:00:14.927Z,10.50
2023-11-23T03:02:46.110Z,10.50
2023-11-23T03:05:17.832Z,10.60
2023-11-23T03:07:48.797Z,10.30
2023-11-23T03:10:19.784Z,10.20
2023-11-23T03:12:50.704Z,10.40
2023-11-23T03:15:21.675Z,10.20
2023-11-23T03:17:52.653Z,10.30
2023-11-23T03:20:23.680Z,10.40
2023-11-23T03:22:54.588Z,10.30
2023-11-23T03:25:26.188Z,10.50
2023-11-23T03:27:57.100Z,10.40
2023-11-23T03:30:28.047Z,10.30
2023-11-23T03:32:59.069Z,10.40
2023-11-23T03:35:30.088Z,10.20
2023-11-23T03:38:01.018Z,10.20
2023-11-23T03:40:32.067Z,10.30
2023-11-23T03:43:02.988Z,10.30
2023-11-23T03:45:33.927Z,10.20
2023-11-23T03:48:05.348Z,10.20
2023-11-23T03:50:36.526Z,10.20
2023-11-23T03:53:07.895Z,10.30
2023-11-23T03:55:38.830Z,10.20
2023-11-23T03:58:09.793Z,10.30
2023-11-23T04:00:41.445Z,10.40
2023-11-23T04:03:12.421Z,10.10
2023-11-23T04:05:43.424Z,10.50
2023-11-23T04:08:14.554Z,10.50
2023-11-23T04:10:45.522Z,10.50
2023-11-23T04:13:16.515Z,10.50
2023-11-23T04:15:47.422Z,10.60
2023-11-23T04:18:18.424Z,10.50
2023-11-23T04:20:49.398Z,10.50
2023-11-23T04:23:20.440Z,10.50
2023-11-23T04:25:51.696Z,10.40
2023-11-23T04:28:22.669Z,10.30
2023-11-23T04:30:54.758Z,10.20
2023-11-23T04:33:25.864Z,10.40
2023-11-23T04:35:57.283Z,10.40
2023-11-23T04:38:28.674Z,10.30
2023-11-23T04:40:59.571Z,10.40
2023-11-23T04:43:30.599Z,10.30
2023-11-23T04:46:02.262Z,10.50
2023-11-23T04:48:33.619Z,10.50
2023-11-23T04:51:05.739Z,10.60
2023-11-23T04:53:36.663Z,10.60
2023-11-23T04:56:07.928Z,10.40
2023-11-23T04:58:38.882Z,10.40
2023-11-23T05:01:09.860Z,10.60
2023-11-23T05:03:41.047Z,10.50
2023-11-23T05:06:13.331Z,10.40
2023-11-23T05:08:44.310Z,10.50
2023-11-23T05:11:15.305Z,10.30
2023-11-23T05:13:46.246Z,10.60
2023-11-23T05:16:17.194Z,10.40
2023-11-23T05:18:48.201Z,10.40
2023-11-23T05:21:19.171Z,10.40
2023-11-23T05:23:50.193Z,10.50
2023-11-23T05:26:21.222Z,10.40
2023-11-23T05:28:52.219Z,10.40
2023-11-23T05:31:23.183Z,10.20
2023-11-23T05:33:54.273Z,10.30
2023-11-23T05:36:25.312Z,10.10
2023-11-23T05:38:56.320Z,10.30
2023-11-23T05:41:27.317Z,10.30
2023-11-23T05:44:00.005Z,10.30
2023-11-23T05:46:31.802Z,10.20
2023-11-23T05:49:03.232Z,10.10
2023-11-23T05:51:34.209Z,10.20
2023-11-23T05:54:05.751Z,10.20
2023-11-23T05:56:37.010Z,10.20
2023-11-23T05:59:08.433Z,10.10
2023-11-23T06:01:39.405Z,10.20
2023-11-23T06:04:10.530Z,10.00
2023-11-23T06:06:41.646Z,10.20
2023-11-23T06:09:12.689Z,10.20
2023-11-23T06:11:44.716Z,10.20
2023-11-23T06:14:15.708Z,10.40
2023-11-23T06:16:46.611Z,10.30
2023-11-23T06:19:17.720Z,10.50
2023-11-23T06:21:48.800Z,10.40
2023-11-23T06:24:19.837Z,10.30
2023-11-23T06:26:51.095Z,10.40
2023-11-23T06:29:22.044Z,10.50
2023-11-23T06:31:53.628Z,10.40
2023-11-23T06:34:26.158Z,10.30
2023-11-23T06:36:57.143Z,10.60
2023-11-23T06:39:28.297Z,10.60
2023-11-23T06:42:02.466Z,10.50
2023-11-23T06:44:33.494Z,10.40
2023-11-23T06:47:05.696Z,10.30
2023-11-23T06:49:36.736Z,10.60
2023-11-23T06:52:08.509Z,10.50
2023-11-23T06:54:39.704Z,10.40
2023-11-23T06:57:10.720Z,10.80
2023-11-23T06:59:42.483Z,10.40
2023-11-23T07:02:13.587Z,10.20
2023-11-23T07:04:44.595Z,10.70
2023-11-23T07:07:15.505Z,11.00
2023-11-23T07:09:46.476Z,10.70
2023-11-23T07:12:17.652Z,10.80
2023-11-23T07:14:48.644Z,11.00
2023-11-23T07:17:20.457Z,10.70
2023-11-23T07:19:51.458Z,10.50
2023-11-23T07:22:22.484Z,10.50
2023-11-23T07:24:53.560Z,10.60
2023-11-23T07:27:24.679Z,11.00
2023-11-23T07:29:56.583Z,11.10
2023-11-23T07:32:27.702Z,10.90
2023-11-23T07:34:58.888Z,10.10
2023-11-23T07:37:38.561Z,10.20
2023-11-23T07:40:16.460Z,9.90
2023-11-23T07:42:47.449Z,9.50
2023-11-23T07:45:18.532Z,9.90
2023-11-23T07:47:50.509Z,9.80
2023-11-23T07:50:21.541Z,10.40
2023-11-23T07:52:52.600Z,10.50
2023-11-23T07:55:23.524Z,10.30
2023-11-23T07:57:54.471Z,10.40
2023-11-23T08:00:26.874Z,10.40
2023-11-23T08:02:57.941Z,11.00
2023-11-23T08:05:28.907Z,11.10
2023-11-23T08:07:59.820Z,11.20
2023-11-23T08:10:30.779Z,11.20
2023-11-23T08:13:02.654Z,10.10
2023-11-23T08:15:35.438Z,10.80
2023-11-23T08:18:08.473Z,10.60
2023-11-23T08:20:39.853Z,10.60
2023-11-23T08:23:13.784Z,11.20
2023-11-23T08:25:45.517Z,11.30
2023-11-23T08:28:17.701Z,11.70
2023-11-23T08:30:48.740Z,11.60
2023-11-23T08:33:20.564Z,10.90
2023-11-23T08:35:55.326Z,11.30
2023-11-23T08:38:28.513Z,11.40
2023-11-23T08:41:01.376Z,11.60
2023-11-23T08:43:32.467Z,11.30
2023-11-23T08:46:04.058Z,11.20
2023-11-23T08:48:35.073Z,11.60
2023-11-23T08:51:06.714Z,11.80
2023-11-23T08:53:37.670Z,12.00
2023-11-23T08:56:08.866Z,12.10
2023-11-23T08:58:40.984Z,11.90
2023-11-23T09:01:12.131Z,12.20
2023-11-23T09:03:43.320Z,12.50
2023-11-23T09:06:15.031Z,12.80
2023-11-23T09:08:46.089Z,11.90
2023-11-23T09:11:17.685Z,12.10
2023-11-23T09:13:48.671Z,13.00
2023-11-23T09:16:20.011Z,13.10
2023-11-23T09:18:51.950Z,12.60
2023-11-23T09:21:23.499Z,12.80
2023-11-23T09:23:55.085Z,13.00
2023-11-23T09:26:26.170Z,13.40
2023-11-23T09:28:57.056Z,13.30
2023-11-23T09:31:32.387Z,13.30
2023-11-23T09:34:03.532Z,13.60
2023-11-23T09:36:34.577Z,13.00
2023-11-23T09:39:05.795Z,12.60
2023-11-23T09:41:40.725Z,13.40
2023-11-23T09:44:12.172Z,13.50
2023-11-23T09:46:45.864Z,13.80
2023-11-23T09:49:19.831Z,13.70
2023-11-23T09:51:52.512Z,13.80
2023-11-23T09:54:27.970Z,13.50
2023-11-23T09:57:02.023Z,13.70
2023-11-23T09:59:33.536Z,13.70
2023-11-23T10:02:10.894Z,13.20
2023-11-23T10:04:41.917Z,13.50
2023-11-23T10:07:16.582Z,14.00
2023-11-23T10:09:50.210Z,13.90
2023-11-23T10:12:23.171Z,14.20
2023-11-23T10:14:54.603Z,14.20
2023-11-23T10:17:26.577Z,14.20
2023-11-23T10:20:17.417Z,14.10
2023-11-23T10:22:50.602Z,14.60
2023-11-23T10:25:38.290Z,14.00
2023-11-23T10:28:09.685Z,14.60
2023-11-23T10:30:40.966Z,14.70
2023-11-23T10:33:14.146Z,14.90
2023-11-23T10:35:51.707Z,14.50
2023-11-23T10:38:35.445Z,15.10
2023-11-23T10:41:15.938Z,14.40
2023-11-23T10:43:48.476Z,14.80
2023-11-23T10:46:20.027Z,14.90
2023-11-23T10:48:52.310Z,15.20
2023-11-23T10:51:26.851Z,14.20
2023-11-23T10:53:57.946Z,15.10
2023-11-23T10:56:31.911Z,14.90
2023-11-23T10:59:12.142Z,15.00
2023-11-23T11:01:43.384Z,14.00
2023-11-23T11:04:14.714Z,14.00
2023-11-23T11:06:49.868Z,14.40
2023-11-23T11:09:29.791Z,13.70
2023-11-23T11:12:05.191Z,14.50
2023-11-23T11:14:37.757Z,14.50
2023-11-23T11:17:08.899Z,14.80
2023-11-23T11:19:54.043Z,15.30
2023-11-23T11:22:25.052Z,15.50
2023-11-23T11:24:59.530Z,14.70
2023-11-23T11:27:31.643Z,15.20
2023-11-23T11:30:03.636Z,14.40
2023-11-23T11:32:34.888Z,15.30
2023-11-23T11:35:09.444Z,15.40
2023-11-23T11:37:43.494Z,15.00
2023-11-23T11:40:17.000Z,14.50
2023-11-23T11:42:47.994Z,15.10
2023-11-23T11:45:20.862Z,15.30
2023-11-23T11:47:58.475Z,15.50
2023-11-23T11:50:29.444Z,15.60
2023-11-23T11:53:01.186Z,15.80
2023-11-23T11:55:33.097Z,15.70
2023-11-23T11:58:06.438Z,16.20
2023-11-23T12:00:39.056Z,16.00
2023-11-23T12:03:11.027Z,16.00
2023-11-23T12:05:43.534Z,16.30
2023-11-23T12:08:16.001Z,16.20
2023-11-23T12:10:46.952Z,16.30
2023-11-23T12:13:24.837Z,16.30
2023-11-23T12:15:56.138Z,16.10
2023-11-23T12:18:36.506Z,16.40
2023-11-23T12:21:14.628Z,16.50
2023-11-23T12:23:46.355Z,16.30
2023-11-23T12:26:17.346Z,16.60
2023-11-23T12:28:49.126Z,16.60
2023-11-23T12:31:22.798Z,16.40
2023-11-23T12:33:53.916Z,16.50
2023-11-23T12:36:25.525Z,16.50
2023-11-23T12:38:58.194Z,16.30
2023-11-23T12:41:36.713Z,16.50
2023-11-23T12:44:14.070Z,16.70
2023-11-23T12:46:45.157Z,15.40
2023-11-23T12:49:16.383Z,16.20
2023-11-23T12:51:47.892Z,16.30
2023-11-23T12:54:19.007Z,16.60
2023-11-23T12:56:52.764Z,16.50
2023-11-23T12:59:23.770Z,16.70
2023-11-23T13:01:56.971Z,16.00
2023-11-23T13:04:30.951Z,16.40
2023-11-23T13:07:03.766Z,16.50
2023-11-23T13:09:35.360Z,16.30
2023-11-23T13:12:06.589Z,15.90
2023-11-23T13:14:37.589Z,16.10
2023-11-23T13:17:09.565Z,16.10
2023-11-23T13:19:44.075Z,16.50
2023-11-23T13:22:17.069Z,16.30
2023-11-23T13:24:48.564Z,16.30
2023-11-23T13:27:19.896Z,16.60
2023-11-23T13:29:51.035Z,16.20
2023-11-23T13:32:21.957Z,15.90
2023-11-23T13:34:53.464Z,15.60
2023-11-23T13:37:25.060Z,16.30
2023-11-23T13:39:55.967Z,17.00
2023-11-23T13:42:27.076Z,16.30
2023-11-23T13:44:58.150Z,16.60
2023-11-23T13:47:29.811Z,16.50
2023-11-23T13:50:01.037Z,16.30
2023-11-23T13:52:33.310Z,16.60
2023-11-23T13:55:10.123Z,16.90
2023-11-23T13:57:41.248Z,15.80
2023-11-23T14:00:13.575Z,16.10
2023-11-23T14:02:44.809Z,16.60
2023-11-23T14:05:16.006Z,17.20
2023-11-23T14:07:49.530Z,17.30
2023-11-23T14:10:21.283Z,17.20
2023-11-23T14:12:52.322Z,17.30
2023-11-23T14:15:23.837Z,17.10
2023-11-23T14:17:54.916Z,16.90
2023-11-23T14:20:26.749Z,17.00
2023-11-23T14:22:57.669Z,17.30
2023-11-23T14:25:28.643Z,17.50
2023-11-23T14:28:07.546Z,17.10
2023-11-23T14:30:38.887Z,17.00
2023-11-23T14:33:14.685Z,16.60
2023-11-23T14:35:52.263Z,16.50
2023-11-23T14:38:24.623Z,15.20
2023-11-23T14:40:58.924Z,15.70
2023-11-23T14:43:29.948Z,15.30
2023-11-23T14:46:01.107Z,16.50
2023-11-23T14:48:32.140Z,14.90
2023-11-23T14:51:03.493Z,15.80
2023-11-23T14:53:34.571Z,15.70
2023-11-23T14:56:05.929Z,15.90
2023-11-23T14:58:36.880Z,16.80
2023-11-23T15:01:07.869Z,15.40
2023-11-23T15:03:39.013Z,16.40
2023-11-23T15:06:10.182Z,16.40
2023-11-23T15:08:41.086Z,16.20
2023-11-23T15:11:13.765Z,16.70
2023-11-23T15:13:45.289Z,17.00
2023-11-23T15:16:17.085Z,17.10
2023-11-23T15:18:48.834Z,16.80
2023-11-23T15:21:19.904Z,16.70
2023-11-23T15:23:51.525Z,16.30
2023-11-23T15:26:22.441Z,16.50
2023-11-23T15:28:53.583Z,16.40
2023-11-23T15:31:25.121Z,15.70
2023-11-23T15:33:56.085Z,15.50
2023-11-23T15:36:27.938Z,15.40
2023-11-23T15:38:58.939Z,15.90
2023-11-23T15:41:30.276Z,16.30
2023-11-23T15:44:01.467Z,16.60
2023-11-23T15:46:33.123Z,15.70
2023-11-23T15:49:05.771Z,16.40
2023-11-23T15:51:36.769Z,16.00
2023-11-23T15:54:08.561Z,15.90
2023-11-23T15:56:39.672Z,15.70
2023-11-23T15:59:10.622Z,15.40
2023-11-23T16:01:41.731Z,15.40
2023-11-23T16:04:12.856Z,15.20
2023-11-23T16:06:44.043Z,15.20
2023-11-23T16:09:16.865Z,15.80
2023-11-23T16:11:47.859Z,15.80
2023-11-23T16:14:18.795Z,15.90
2023-11-23T16:16:49.770Z,15.90
2023-11-23T16:19:21.279Z,15.70
2023-11-23T16:21:53.176Z,15.90
2023-11-23T16:24:24.187Z,16.00
2023-11-23T16:26:55.739Z,16.20
2023-11-23T16:29:27.828Z,16.10
2023-11-23T16:32:01.592Z,16.00
2023-11-23T16:34:33.872Z,15.50
2023-11-23T16:37:05.154Z,15.80
2023-11-23T16:39:36.171Z,16.20
2023-11-23T16:42:07.835Z,16.30
2023-11-23T16:44:38.984Z,16.30
2023-11-23T16:47:09.903Z,16.10
2023-11-23T16:49:42.083Z,16.50
2023-11-23T16:52:13.019Z,16.80
2023-11-23T16:54:44.021Z,16.40
2023-11-23T16:57:14.957Z,16.50
2023-11-23T16:59:48.976Z,16.60
2023-11-23T17:02:20.314Z,16.60
2023-11-23T17:04:54.563Z,15.90
2023-11-23T17:07:26.544Z,15.70
2023-11-23T17:09:59.403Z,15.40
2023-11-23T17:12:31.215Z,15.60
2023-11-23T17:15:02.270Z,15.50
2023-11-23T17:17:33.525Z,15.50
2023-11-23T17:20:05.801Z,16.60
2023-11-23T17:22:38.306Z,16.30
2023-11-23T17:25:13.992Z,16.10
2023-11-23T17:27:48.446Z,16.10
2023-11-23T17:30:22.325Z,15.30
2023-11-23T17:32:53.395Z,16.10
2023-11-23T17:35:26.115Z,16.60
2023-11-23T17:37:57.443Z,16.40
2023-11-23T17:40:28.536Z,16.80
2023-11-23T17:42:59.452Z,16.50
2023-11-23T17:45:30.617Z,15.80
2023-11-23T17:48:02.356Z,16.30
2023-11-23T17:50:33.851Z,16.80
2023-11-23T17:53:05.737Z,17.00
2023-11-23T17:55:36.800Z,16.80
2023-11-23T17:58:09.972Z,16.30
2023-11-23T18:00:41.033Z,16.10
2023-11-23T18:03:12.492Z,16.40
2023-11-23T18:05:43.937Z,17.00
2023-11-23T18:08:15.860Z,17.20
2023-11-23T18:10:51.124Z,16.90
2023-11-23T18:13:22.497Z,16.10
2023-11-23T18:15:53.911Z,16.20
2023-11-23T18:18:25.123Z,16.10
2023-11-23T18:20:58.005Z,15.80
2023-11-23T18:23:29.838Z,16.70
2023-11-23T18:26:00.809Z,16.40
2023-11-23T18:28:31.963Z,16.40
2023-11-23T18:31:02.968Z,16.60
2023-11-23T18:33:36.917Z,16.30
2023-11-23T18:36:11.009Z,17.00
2023-11-23T18:38:43.978Z,17.00
2023-11-23T18:41:14.942Z,17.00
2023-11-23T18:43:46.771Z,16.10
2023-11-23T18:46:19.877Z,16.70
2023-11-23T18:48:51.073Z,16.60
2023-11-23T18:51:22.197Z,16.50
2023-11-23T18:53:53.708Z,16.30
2023-11-23T18:56:24.679Z,17.00
2023-11-23T18:58:56.202Z,17.10
2023-11-23T19:01:27.398Z,17.20
2023-11-23T19:04:00.022Z,17.30
2023-11-23T19:06:31.472Z,17.10
2023-11-23T19:09:02.702Z,17.10
2023-11-23T19:11:33.773Z,16.90
2023-11-23T19:14:05.028Z,16.90
2023-11-23T19:16:36.272Z,17.00
2023-11-23T19:19:08.728Z,16.70
2023-11-23T19:21:40.537Z,16.80
2023-11-23T19:24:13.389Z,16.40
2023-11-23T19:26:45.539Z,16.10
2023-11-23T19:29:19.060Z,16.10
2023-11-23T19:31:51.833Z,16.30
2023-11-23T19:34:23.627Z,16.70
2023-11-23T19:36:55.642Z,16.70
2023-11-23T19:39:29.005Z,17.00
2023-11-23T19:42:01.357Z,17.00
2023-11-23T19:44:32.759Z,16.10
2023-11-23T19:47:04.140Z,17.00
2023-11-23T19:49:35.555Z,17.10
2023-11-23T19:52:17.743Z,16.60
2023-11-23T19:54:49.456Z,16.50
2023-11-23T19:57:20.930Z,17.20
2023-11-23T19:59:53.187Z,17.20
2023-11-23T20:02:24.209Z,17.10
2023-11-23T20:04:55.233Z,17.40
2023-11-23T20:07:29.243Z,16.70
2023-11-23T20:10:00.248Z,17.30
2023-11-23T20:12:34.423Z,17.20
2023-11-23T20:17:38.945Z,17.30
2023-11-23T20:20:11.393Z,17.20
2023-11-23T20:22:42.512Z,17.20
2023-11-23T20:25:17.287Z,17.30
2023-11-23T20:27:48.940Z,17.40
2023-11-23T20:30:20.069Z,17.50
2023-11-23T20:32:51.366Z,17.60
2023-11-23T20:35:23.826Z,17.50
2023-11-23T20:37:56.630Z,17.60
2023-11-23T20:40:28.244Z,17.70
2023-11-23T20:42:59.764Z,17.00
2023-11-23T20:45:30.748Z,17.10
2023-11-23T20:48:01.813Z,16.90
2023-11-23T20:50:32.766Z,17.10
2023-11-23T20:53:05.490Z,17.00
2023-11-23T20:55:37.169Z,16.80
2023-11-23T20:58:08.549Z,17.00
2023-11-23T21:00:39.946Z,17.00
2023-11-23T21:03:11.482Z,16.60
2023-11-23T21:05:42.821Z,16.50
2023-11-23T21:08:14.309Z,17.40
2023-11-23T21:10:47.571Z,17.30
2023-11-23T21:13:20.085Z,17.50
2023-11-23T21:15:51.086Z,17.60
2023-11-23T21:18:22.219Z,17.80
2023-11-23T21:20:53.398Z,17.60
2023-11-23T21:23:24.352Z,17.40
2023-11-23T21:25:55.281Z,17.40
2023-11-23T21:28:26.941Z,16.20
2023-11-23T21:30:57.942Z,17.10
2023-11-23T21:33:29.028Z,17.00
2023-11-23T21:35:59.988Z,17.20
2023-11-23T21:38:31.996Z,17.40
2023-11-23T21:41:04.167Z,17.20
2023-11-23T21:43:35.270Z,17.20
2023-11-23T21:46:06.308Z,17.10
2023-11-23T21:48:38.010Z,17.20
2023-11-23T21:51:08.966Z,17.00
2023-11-23T21:53:42.257Z,17.30
2023-11-23T21:56:13.515Z,17.50
2023-11-23T21:58:44.542Z,17.10
2023-11-23T22:01:15.689Z,17.20
2023-11-23T22:03:50.772Z,17.30
2023-11-23T22:06:22.773Z,17.30
2023-11-23T22:08:53.857Z,16.60
2023-11-23T22:11:24.871Z,16.50
2023-11-23T22:13:55.819Z,17.20
2023-11-23T22:16:26.850Z,17.00
2023-11-23T22:18:58.224Z,17.00
2023-11-23T22:21:29.806Z,16.70
2023-11-23T22:24:01.668Z,17.20
2023-11-23T22:26:33.340Z,17.50
2023-11-23T22:29:04.336Z,17.20
2023-11-23T22:31:37.527Z,17.30
2023-11-23T22:34:09.152Z,17.20
2023-11-23T22:36:40.605Z,17.60
2023-11-23T22:39:12.027Z,17.40
2023-11-23T22:41:44.514Z,17.60
2023-11-23T22:44:16.055Z,17.40
2023-11-23T22:46:48.035Z,17.40
2023-11-23T22:49:18.956Z,17.50
2023-11-23T22:51:49.909Z,18.00
2023-11-23T22:54:21.001Z,18.10
2023-11-23T22:56:51.967Z,18.20
2023-11-23T22:59:22.871Z,17.90
2023-11-23T23:01:53.970Z,18.00
2023-11-23T23:04:25.761Z,17.70
2023-11-23T23:06:57.155Z,17.80
2023-11-23T23:09:28.704Z,17.80
2023-11-23T23:11:59.764Z,17.70
2023-11-23T23:14:30.842Z,18.10
2023-11-23T23:17:02.053Z,18.10
2023-11-23T23:19:33.121Z,17.90
2023-11-23T23:22:09.267Z,17.80
2023-11-23T23:24:44.842Z,17.50
2023-11-23T23:27:16.234Z,17.70
2023-11-23T23:29:47.216Z,17.50
2023-11-23T23:32:18.141Z,17.60
2023-11-23T23:34:49.070Z,17.20
2023-11-23T23:37:20.137Z,16.60
2023-11-23T23:39:51.109Z,17.20
2023-11-23T23:42:22.439Z,16.90
2023-11-23T23:44:57.347Z,16.80
2023-11-23T23:47:28.567Z,16.80
2023-11-23T23:49:59.814Z,15.90
2023-11-23T23:52:30.724Z,16.20
2023-11-23T23:55:02.955Z,16.30
2023-11-23T23:57:35.373Z,16.10
